sensor_id;sensor_type;location;lat;lon;timestamp;temperature;humidity
74364;DHT22;62797;49.740;10.154;2023-02-28T00:00:20;-2.20;45.90
74364;DHT22;62797;49.740;10.154;2023-02-28T00:02:46;-2.20;46.50
74364;DHT22;62797;49.740;10.154;2023-02-28T00:05:14;-2.30;46.40
74364;DHT22;62797;49.740;10.154;2023-02-28T00:07:40;-2.30;45.80
74364;DHT22;62797;49.740;10.154;2023-02-28T00:10:12;-2.30;46.10
74364;DHT22;62797;49.740;10.154;2023-02-28T00:12:38;-2.30;46.30
74364;DHT22;62797;49.740;10.154;2023-02-28T00:15:09;-2.40;45.70
74364;DHT22;62797;49.740;10.154;2023-02-28T00:17:35;-2.40;46.00
74364;DHT22;62797;49.740;10.154;2023-02-28T00:20:01;-2.50;47.30
74364;DHT22;62797;49.740;10.154;2023-02-28T00:22:27;-2.50;46.30
74364;DHT22;62797;49.740;10.154;2023-02-28T00:24:53;-2.50;47.10
74364;DHT22;62797;49.740;10.154;2023-02-28T00:27:19;-2.50;47.20
74364;DHT22;62797;49.740;10.154;2023-02-28T00:29:46;-2.50;47.80
74364;DHT22;62797;49.740;10.154;2023-02-28T00:32:12;-2.50;46.90
74364;DHT22;62797;49.740;10.154;2023-02-28T00:34:39;-2.50;47.40
74364;DHT22;62797;49.740;10.154;2023-02-28T00:37:06;-2.40;48.00
74364;DHT22;62797;49.740;10.154;2023-02-28T00:39:34;-2.40;47.50
74364;DHT22;62797;49.740;10.154;2023-02-28T00:41:59;-2.40;47.70
74364;DHT22;62797;49.740;10.154;2023-02-28T00:44:25;-2.40;47.50
74364;DHT22;62797;49.740;10.154;2023-02-28T00:46:52;-2.50;47.90
74364;DHT22;62797;49.740;10.154;2023-02-28T00:49:22;-2.50;47.20
74364;DHT22;62797;49.740;10.154;2023-02-28T00:51:48;-2.50;48.70
74364;DHT22;62797;49.740;10.154;2023-02-28T00:54:14;-2.50;49.60
74364;DHT22;62797;49.740;10.154;2023-02-28T00:56:40;-2.50;49.70
74364;DHT22;62797;49.740;10.154;2023-02-28T00:59:05;-2.50;48.40
74364;DHT22;62797;49.740;10.154;2023-02-28T01:01:31;-2.60;49.10
74364;DHT22;62797;49.740;10.154;2023-02-28T01:03:57;-2.60;48.90
74364;DHT22;62797;49.740;10.154;2023-02-28T01:06:23;-2.60;49.90
74364;DHT22;62797;49.740;10.154;2023-02-28T01:08:49;-2.70;48.90
74364;DHT22;62797;49.740;10.154;2023-02-28T01:11:16;-2.70;49.10
74364;DHT22;62797;49.740;10.154;2023-02-28T01:13:43;-2.70;49.10
74364;DHT22;62797;49.740;10.154;2023-02-28T01:16:11;-2.70;48.20
74364;DHT22;62797;49.740;10.154;2023-02-28T01:18:38;-2.70;48.80
74364;DHT22;62797;49.740;10.154;2023-02-28T01:21:10;-2.70;49.50
74364;DHT22;62797;49.740;10.154;2023-02-28T01:23:36;-2.70;49.40
74364;DHT22;62797;49.740;10.154;2023-02-28T01:26:11;-2.70;49.10
74364;DHT22;62797;49.740;10.154;2023-02-28T01:28:39;-2.80;49.50
74364;DHT22;62797;49.740;10.154;2023-02-28T01:31:05;-2.80;50.70
74364;DHT22;62797;49.740;10.154;2023-02-28T01:33:31;-2.80;48.70
74364;DHT22;62797;49.740;10.154;2023-02-28T01:36:05;-2.80;50.20
74364;DHT22;62797;49.740;10.154;2023-02-28T01:38:31;-2.80;50.60
74364;DHT22;62797;49.740;10.154;2023-02-28T01:40:57;-2.80;50.20
74364;DHT22;62797;49.740;10.154;2023-02-28T01:43:29;-2.80;48.40
74364;DHT22;62797;49.740;10.154;2023-02-28T01:45:56;-2.80;49.20
74364;DHT22;62797;49.740;10.154;2023-02-28T01:48:27;-2.80;50.20
74364;DHT22;62797;49.740;10.154;2023-02-28T01:50:54;-2.80;50.90
74364;DHT22;62797;49.740;10.154;2023-02-28T01:53:29;-2.80;49.90
74364;DHT22;62797;49.740;10.154;2023-02-28T01:55:57;-2.80;50.60
74364;DHT22;62797;49.740;10.154;2023-02-28T01:58:23;-2.80;50.50
74364;DHT22;62797;49.740;10.154;2023-02-28T02:00:49;-2.90;49.70
74364;DHT22;62797;49.740;10.154;2023-02-28T02:03:16;-2.90;49.90
74364;DHT22;62797;49.740;10.154;2023-02-28T02:05:45;-2.90;51.30
74364;DHT22;62797;49.740;10.154;2023-02-28T02:08:23;-3.00;49.60
74364;DHT22;62797;49.740;10.154;2023-02-28T02:10:55;-3.00;50.40
74364;DHT22;62797;49.740;10.154;2023-02-28T02:16:44;-3.00;49.10
74364;DHT22;62797;49.740;10.154;2023-02-28T02:27:59;-3.20;49.60
74364;DHT22;62797;49.740;10.154;2023-02-28T02:30:58;-3.20;50.80
74364;DHT22;62797;49.740;10.154;2023-02-28T02:33:46;-3.30;52.00
74364;DHT22;62797;49.740;10.154;2023-02-28T02:41:44;-3.30;50.30
74364;DHT22;62797;49.740;10.154;2023-02-28T02:44:24;-3.30;51.20
74364;DHT22;62797;49.740;10.154;2023-02-28T02:46:58;-3.30;51.60
74364;DHT22;62797;49.740;10.154;2023-02-28T02:49:30;-3.30;52.00
74364;DHT22;62797;49.740;10.154;2023-02-28T02:52:00;-3.40;50.60
74364;DHT22;62797;49.740;10.154;2023-02-28T02:54:32;-3.40;50.40
74364;DHT22;62797;49.740;10.154;2023-02-28T02:57:02;-3.50;50.80
74364;DHT22;62797;49.740;10.154;2023-02-28T02:59:30;-3.40;52.50
74364;DHT22;62797;49.740;10.154;2023-02-28T03:02:00;-3.40;50.90
74364;DHT22;62797;49.740;10.154;2023-02-28T03:04:32;-3.40;51.30
74364;DHT22;62797;49.740;10.154;2023-02-28T03:06:58;-3.40;51.40
74364;DHT22;62797;49.740;10.154;2023-02-28T03:09:25;-3.40;51.60
74364;DHT22;62797;49.740;10.154;2023-02-28T03:11:52;-3.40;51.30
74364;DHT22;62797;49.740;10.154;2023-02-28T03:17:29;-3.40;50.80
74364;DHT22;62797;49.740;10.154;2023-02-28T03:28:31;-3.50;50.90
74364;DHT22;62797;49.740;10.154;2023-02-28T03:31:06;-3.50;52.00
74364;DHT22;62797;49.740;10.154;2023-02-28T03:33:46;-3.60;50.70
74364;DHT22;62797;49.740;10.154;2023-02-28T03:36:24;-3.60;52.00
74364;DHT22;62797;49.740;10.154;2023-02-28T03:41:20;-3.60;52.40
74364;DHT22;62797;49.740;10.154;2023-02-28T03:43:55;-3.60;50.50
74364;DHT22;62797;49.740;10.154;2023-02-28T03:46:25;-3.70;51.60
74364;DHT22;62797;49.740;10.154;2023-02-28T03:48:57;-3.70;52.60
74364;DHT22;62797;49.740;10.154;2023-02-28T03:51:27;-3.70;51.30
74364;DHT22;62797;49.740;10.154;2023-02-28T03:53:58;-3.70;51.80
74364;DHT22;62797;49.740;10.154;2023-02-28T03:56:44;-3.70;52.50
74364;DHT22;62797;49.740;10.154;2023-02-28T03:59:18;-3.60;52.70
74364;DHT22;62797;49.740;10.154;2023-02-28T04:01:48;-3.60;52.40
74364;DHT22;62797;49.740;10.154;2023-02-28T04:04:15;-3.70;51.70
74364;DHT22;62797;49.740;10.154;2023-02-28T04:06:42;-3.70;53.50
74364;DHT22;62797;49.740;10.154;2023-02-28T04:09:10;-3.70;52.80
74364;DHT22;62797;49.740;10.154;2023-02-28T04:11:42;-3.70;51.60
74364;DHT22;62797;49.740;10.154;2023-02-28T04:14:09;-3.80;51.20
74364;DHT22;62797;49.740;10.154;2023-02-28T04:16:37;-3.80;51.40
74364;DHT22;62797;49.740;10.154;2023-02-28T04:19:04;-3.80;51.60
74364;DHT22;62797;49.740;10.154;2023-02-28T04:21:32;-3.80;52.00
74364;DHT22;62797;49.740;10.154;2023-02-28T04:23:58;-3.80;51.30
74364;DHT22;62797;49.740;10.154;2023-02-28T04:26:33;-3.90;51.20
74364;DHT22;62797;49.740;10.154;2023-02-28T04:29:03;-3.90;51.20
74364;DHT22;62797;49.740;10.154;2023-02-28T04:31:29;-4.00;52.70
74364;DHT22;62797;49.740;10.154;2023-02-28T04:33:57;-4.00;52.70
74364;DHT22;62797;49.740;10.154;2023-02-28T04:36:23;-4.00;52.50
74364;DHT22;62797;49.740;10.154;2023-02-28T04:38:49;-4.00;51.60
74364;DHT22;62797;49.740;10.154;2023-02-28T04:41:15;-4.00;51.40
74364;DHT22;62797;49.740;10.154;2023-02-28T04:43:41;-4.00;53.40
74364;DHT22;62797;49.740;10.154;2023-02-28T04:46:07;-4.00;52.60
74364;DHT22;62797;49.740;10.154;2023-02-28T04:48:35;-4.00;52.90
74364;DHT22;62797;49.740;10.154;2023-02-28T04:51:07;-4.00;53.00
74364;DHT22;62797;49.740;10.154;2023-02-28T04:53:33;-4.00;52.40
74364;DHT22;62797;49.740;10.154;2023-02-28T04:55:59;-4.00;53.30
74364;DHT22;62797;49.740;10.154;2023-02-28T04:58:25;-4.00;53.00
74364;DHT22;62797;49.740;10.154;2023-02-28T05:00:52;-4.00;53.40
74364;DHT22;62797;49.740;10.154;2023-02-28T05:03:17;-4.00;52.70
74364;DHT22;62797;49.740;10.154;2023-02-28T05:05:45;-4.10;53.20
74364;DHT22;62797;49.740;10.154;2023-02-28T05:08:11;-4.00;53.60
74364;DHT22;62797;49.740;10.154;2023-02-28T05:10:37;-4.10;53.90
74364;DHT22;62797;49.740;10.154;2023-02-28T05:13:02;-4.00;53.30
74364;DHT22;62797;49.740;10.154;2023-02-28T05:15:28;-4.10;52.50
74364;DHT22;62797;49.740;10.154;2023-02-28T05:17:53;-4.10;51.80
74364;DHT22;62797;49.740;10.154;2023-02-28T05:20:19;-4.10;53.80
74364;DHT22;62797;49.740;10.154;2023-02-28T05:22:46;-4.10;53.10
74364;DHT22;62797;49.740;10.154;2023-02-28T05:25:15;-4.10;52.80
74364;DHT22;62797;49.740;10.154;2023-02-28T05:27:42;-4.10;53.20
74364;DHT22;62797;49.740;10.154;2023-02-28T05:30:08;-4.10;53.90
74364;DHT22;62797;49.740;10.154;2023-02-28T05:32:37;-4.10;52.80
74364;DHT22;62797;49.740;10.154;2023-02-28T05:35:03;-4.10;52.80
74364;DHT22;62797;49.740;10.154;2023-02-28T05:37:30;-4.10;53.60
74364;DHT22;62797;49.740;10.154;2023-02-28T05:39:55;-4.10;53.80
74364;DHT22;62797;49.740;10.154;2023-02-28T05:42:21;-4.10;53.40
74364;DHT22;62797;49.740;10.154;2023-02-28T05:44:46;-4.10;53.20
74364;DHT22;62797;49.740;10.154;2023-02-28T05:47:12;-4.10;52.70
74364;DHT22;62797;49.740;10.154;2023-02-28T05:49:41;-4.10;53.10
74364;DHT22;62797;49.740;10.154;2023-02-28T05:52:07;-4.10;54.20
74364;DHT22;62797;49.740;10.154;2023-02-28T05:54:32;-4.10;53.80
74364;DHT22;62797;49.740;10.154;2023-02-28T05:56:58;-4.10;53.50
74364;DHT22;62797;49.740;10.154;2023-02-28T05:59:24;-4.10;54.30
74364;DHT22;62797;49.740;10.154;2023-02-28T06:01:49;-4.10;53.10
74364;DHT22;62797;49.740;10.154;2023-02-28T06:04:17;-4.10;53.40
74364;DHT22;62797;49.740;10.154;2023-02-28T06:06:48;-4.10;53.60
74364;DHT22;62797;49.740;10.154;2023-02-28T06:09:14;-4.10;52.70
74364;DHT22;62797;49.740;10.154;2023-02-28T06:11:40;-4.10;54.30
74364;DHT22;62797;49.740;10.154;2023-02-28T06:14:06;-4.10;54.10
74364;DHT22;62797;49.740;10.154;2023-02-28T06:16:34;-4.10;54.00
74364;DHT22;62797;49.740;10.154;2023-02-28T06:19:02;-4.10;53.40
74364;DHT22;62797;49.740;10.154;2023-02-28T06:21:28;-4.10;52.50
74364;DHT22;62797;49.740;10.154;2023-02-28T06:23:55;-4.10;53.60
74364;DHT22;62797;49.740;10.154;2023-02-28T06:26:21;-4.10;53.60
74364;DHT22;62797;49.740;10.154;2023-02-28T06:28:47;-4.10;54.10
74364;DHT22;62797;49.740;10.154;2023-02-28T06:31:15;-4.00;53.80
74364;DHT22;62797;49.740;10.154;2023-02-28T06:33:42;-4.00;54.30
74364;DHT22;62797;49.740;10.154;2023-02-28T06:36:09;-4.00;54.70
74364;DHT22;62797;49.740;10.154;2023-02-28T06:38:35;-3.90;54.60
74364;DHT22;62797;49.740;10.154;2023-02-28T06:41:01;-3.90;55.00
74364;DHT22;62797;49.740;10.154;2023-02-28T06:43:33;-3.80;54.80
74364;DHT22;62797;49.740;10.154;2023-02-28T06:46:00;-3.70;55.40
74364;DHT22;62797;49.740;10.154;2023-02-28T06:48:27;-3.70;54.80
74364;DHT22;62797;49.740;10.154;2023-02-28T06:51:02;-3.60;54.50
74364;DHT22;62797;49.740;10.154;2023-02-28T06:53:27;-3.50;54.90
74364;DHT22;62797;49.740;10.154;2023-02-28T06:55:55;-3.50;54.70
74364;DHT22;62797;49.740;10.154;2023-02-28T06:58:21;-3.40;53.70
74364;DHT22;62797;49.740;10.154;2023-02-28T07:00:51;-3.30;53.60
74364;DHT22;62797;49.740;10.154;2023-02-28T07:03:17;-3.20;53.20
74364;DHT22;62797;49.740;10.154;2023-02-28T07:05:44;-3.10;53.40
74364;DHT22;62797;49.740;10.154;2023-02-28T07:08:10;-3.00;53.40
74364;DHT22;62797;49.740;10.154;2023-02-28T07:10:39;-3.00;53.00
74364;DHT22;62797;49.740;10.154;2023-02-28T07:13:07;-2.90;52.80
74364;DHT22;62797;49.740;10.154;2023-02-28T07:15:33;-2.80;52.20
74364;DHT22;62797;49.740;10.154;2023-02-28T07:17:58;-2.70;52.20
74364;DHT22;62797;49.740;10.154;2023-02-28T07:20:24;-2.60;52.00
74364;DHT22;62797;49.740;10.154;2023-02-28T07:22:51;-2.60;51.20
74364;DHT22;62797;49.740;10.154;2023-02-28T07:25:26;-2.60;51.20
74364;DHT22;62797;49.740;10.154;2023-02-28T07:27:52;-2.50;51.20
74364;DHT22;62797;49.740;10.154;2023-02-28T07:30:18;-2.40;51.20
74364;DHT22;62797;49.740;10.154;2023-02-28T07:32:44;-2.30;50.50
74364;DHT22;62797;49.740;10.154;2023-02-28T07:35:10;-2.20;50.00
74364;DHT22;62797;49.740;10.154;2023-02-28T07:37:36;-2.20;49.30
74364;DHT22;62797;49.740;10.154;2023-02-28T07:40:06;-2.10;49.40
74364;DHT22;62797;49.740;10.154;2023-02-28T07:42:35;-2.10;49.40
74364;DHT22;62797;49.740;10.154;2023-02-28T07:45:04;-2.00;48.80
74364;DHT22;62797;49.740;10.154;2023-02-28T07:47:32;-1.90;49.10
74364;DHT22;62797;49.740;10.154;2023-02-28T07:49:58;-1.80;48.60
74364;DHT22;62797;49.740;10.154;2023-02-28T07:52:24;-1.70;48.20
74364;DHT22;62797;49.740;10.154;2023-02-28T07:54:50;-1.60;48.30
74364;DHT22;62797;49.740;10.154;2023-02-28T07:57:17;-1.50;47.30
74364;DHT22;62797;49.740;10.154;2023-02-28T07:59:43;-1.40;47.10
74364;DHT22;62797;49.740;10.154;2023-02-28T08:02:16;-1.30;46.10
74364;DHT22;62797;49.740;10.154;2023-02-28T08:04:43;-1.10;44.20
74364;DHT22;62797;49.740;10.154;2023-02-28T08:07:08;-1.10;44.30
74364;DHT22;62797;49.740;10.154;2023-02-28T08:09:39;-1.00;44.20
74364;DHT22;62797;49.740;10.154;2023-02-28T08:12:05;-0.90;44.30
74364;DHT22;62797;49.740;10.154;2023-02-28T08:14:31;-0.80;42.20
74364;DHT22;62797;49.740;10.154;2023-02-28T08:16:56;-0.70;42.40
74364;DHT22;62797;49.740;10.154;2023-02-28T08:19:22;-0.60;42.40
74364;DHT22;62797;49.740;10.154;2023-02-28T08:21:48;-0.50;41.20
74364;DHT22;62797;49.740;10.154;2023-02-28T08:24:13;-0.30;40.00
74364;DHT22;62797;49.740;10.154;2023-02-28T08:26:39;-0.20;38.80
74364;DHT22;62797;49.740;10.154;2023-02-28T08:29:05;-0.10;38.00
74364;DHT22;62797;49.740;10.154;2023-02-28T08:31:30;0.00;38.50
74364;DHT22;62797;49.740;10.154;2023-02-28T08:33:56;0.00;36.80
74364;DHT22;62797;49.740;10.154;2023-02-28T08:36:24;0.10;37.00
74364;DHT22;62797;49.740;10.154;2023-02-28T08:38:49;0.10;35.30
74364;DHT22;62797;49.740;10.154;2023-02-28T08:41:15;0.20;36.30
74364;DHT22;62797;49.740;10.154;2023-02-28T08:43:41;0.30;35.90
74364;DHT22;62797;49.740;10.154;2023-02-28T08:46:07;0.40;34.50
74364;DHT22;62797;49.740;10.154;2023-02-28T08:48:34;0.40;32.80
74364;DHT22;62797;49.740;10.154;2023-02-28T08:51:03;0.50;32.90
74364;DHT22;62797;49.740;10.154;2023-02-28T08:53:29;0.50;33.60
74364;DHT22;62797;49.740;10.154;2023-02-28T08:56:01;0.70;32.50
74364;DHT22;62797;49.740;10.154;2023-02-28T08:58:27;0.70;32.50
74364;DHT22;62797;49.740;10.154;2023-02-28T09:00:53;0.60;32.00
74364;DHT22;62797;49.740;10.154;2023-02-28T09:03:23;0.70;31.70
74364;DHT22;62797;49.740;10.154;2023-02-28T09:05:57;0.80;32.00
74364;DHT22;62797;49.740;10.154;2023-02-28T09:08:24;0.90;32.60
74364;DHT22;62797;49.740;10.154;2023-02-28T09:10:51;1.10;31.70
74364;DHT22;62797;49.740;10.154;2023-02-28T09:13:18;1.20;31.70
74364;DHT22;62797;49.740;10.154;2023-02-28T09:15:43;1.30;30.50
74364;DHT22;62797;49.740;10.154;2023-02-28T09:18:09;1.30;29.90
74364;DHT22;62797;49.740;10.154;2023-02-28T09:20:37;1.30;30.30
74364;DHT22;62797;49.740;10.154;2023-02-28T09:23:03;1.40;30.10
74364;DHT22;62797;49.740;10.154;2023-02-28T09:25:29;1.60;29.90
74364;DHT22;62797;49.740;10.154;2023-02-28T09:27:55;1.60;29.80
74364;DHT22;62797;49.740;10.154;2023-02-28T09:30:20;1.80;29.60
74364;DHT22;62797;49.740;10.154;2023-02-28T09:32:46;1.90;28.70
74364;DHT22;62797;49.740;10.154;2023-02-28T09:35:18;1.90;29.10
74364;DHT22;62797;49.740;10.154;2023-02-28T09:37:44;2.00;28.30
74364;DHT22;62797;49.740;10.154;2023-02-28T09:40:10;2.00;28.30
74364;DHT22;62797;49.740;10.154;2023-02-28T09:42:37;2.10;27.20
74364;DHT22;62797;49.740;10.154;2023-02-28T09:45:19;2.10;27.70
74364;DHT22;62797;49.740;10.154;2023-02-28T09:47:48;2.20;27.80
74364;DHT22;62797;49.740;10.154;2023-02-28T09:50:34;2.30;27.30
74364;DHT22;62797;49.740;10.154;2023-02-28T09:53:06;2.40;26.40
74364;DHT22;62797;49.740;10.154;2023-02-28T09:55:40;2.50;26.40
74364;DHT22;62797;49.740;10.154;2023-02-28T09:58:20;2.60;26.10
74364;DHT22;62797;49.740;10.154;2023-02-28T10:01:01;2.80;26.50
74364;DHT22;62797;49.740;10.154;2023-02-28T10:04:00;2.90;25.30
74364;DHT22;62797;49.740;10.154;2023-02-28T10:06:36;3.00;25.50
74364;DHT22;62797;49.740;10.154;2023-02-28T10:09:15;3.00;25.20
74364;DHT22;62797;49.740;10.154;2023-02-28T10:11:43;3.20;24.30
74364;DHT22;62797;49.740;10.154;2023-02-28T10:14:24;3.20;24.20
74364;DHT22;62797;49.740;10.154;2023-02-28T10:16:58;3.40;23.60
74364;DHT22;62797;49.740;10.154;2023-02-28T10:19:53;3.60;23.80
74364;DHT22;62797;49.740;10.154;2023-02-28T10:22:27;3.60;23.10
74364;DHT22;62797;49.740;10.154;2023-02-28T10:24:55;3.60;23.00
74364;DHT22;62797;49.740;10.154;2023-02-28T10:27:31;3.60;23.20
74364;DHT22;62797;49.740;10.154;2023-02-28T10:29:59;3.60;22.70
74364;DHT22;62797;49.740;10.154;2023-02-28T10:32:34;3.70;22.90
74364;DHT22;62797;49.740;10.154;2023-02-28T10:35:14;3.90;23.00
74364;DHT22;62797;49.740;10.154;2023-02-28T10:37:42;4.10;23.10
74364;DHT22;62797;49.740;10.154;2023-02-28T10:43:01;4.40;21.70
74364;DHT22;62797;49.740;10.154;2023-02-28T10:45:35;4.50;21.60
74364;DHT22;62797;49.740;10.154;2023-02-28T10:48:27;4.50;21.50
74364;DHT22;62797;49.740;10.154;2023-02-28T10:50:55;4.30;22.80
74364;DHT22;62797;49.740;10.154;2023-02-28T10:53:30;4.50;22.70
74364;DHT22;62797;49.740;10.154;2023-02-28T10:59:02;4.50;22.00
74364;DHT22;62797;49.740;10.154;2023-02-28T11:01:40;4.60;22.30
74364;DHT22;62797;49.740;10.154;2023-02-28T11:07:01;4.80;21.50
74364;DHT22;62797;49.740;10.154;2023-02-28T11:09:38;5.00;20.90
74364;DHT22;62797;49.740;10.154;2023-02-28T11:12:04;4.70;21.20
74364;DHT22;62797;49.740;10.154;2023-02-28T11:14:34;4.70;21.00
74364;DHT22;62797;49.740;10.154;2023-02-28T11:17:19;4.60;22.00
74364;DHT22;62797;49.740;10.154;2023-02-28T11:19:47;4.90;20.60
74364;DHT22;62797;49.740;10.154;2023-02-28T11:22:24;4.90;21.30
74364;DHT22;62797;49.740;10.154;2023-02-28T11:24:57;4.90;20.40
74364;DHT22;62797;49.740;10.154;2023-02-28T11:29:55;5.00;22.70
74364;DHT22;62797;49.740;10.154;2023-02-28T11:32:22;5.30;22.20
74364;DHT22;62797;49.740;10.154;2023-02-28T11:37:39;6.10;20.70
74364;DHT22;62797;49.740;10.154;2023-02-28T11:40:16;6.20;19.10
74364;DHT22;62797;49.740;10.154;2023-02-28T11:42:50;6.20;19.10
74364;DHT22;62797;49.740;10.154;2023-02-28T11:48:01;6.10;18.20
74364;DHT22;62797;49.740;10.154;2023-02-28T11:56:26;6.60;19.70
74364;DHT22;62797;49.740;10.154;2023-02-28T11:59:02;7.00;17.60
74364;DHT22;62797;49.740;10.154;2023-02-28T12:01:43;7.50;17.80
74364;DHT22;62797;49.740;10.154;2023-02-28T12:04:47;7.90;18.10
74364;DHT22;62797;49.740;10.154;2023-02-28T12:10:29;8.00;16.60
74364;DHT22;62797;49.740;10.154;2023-02-28T12:26:44;8.30;15.80
74364;DHT22;62797;49.740;10.154;2023-02-28T12:31:46;7.90;15.90
74364;DHT22;62797;49.740;10.154;2023-02-28T12:34:31;7.60;16.70
74364;DHT22;62797;49.740;10.154;2023-02-28T12:37:03;7.60;16.80
74364;DHT22;62797;49.740;10.154;2023-02-28T12:39:34;7.80;15.80
74364;DHT22;62797;49.740;10.154;2023-02-28T12:42:13;8.10;16.50
74364;DHT22;62797;49.740;10.154;2023-02-28T12:44:56;8.40;15.20
74364;DHT22;62797;49.740;10.154;2023-02-28T12:47:23;8.90;14.10
74364;DHT22;62797;49.740;10.154;2023-02-28T12:50:05;9.00;14.60
74364;DHT22;62797;49.740;10.154;2023-02-28T12:53:00;9.50;14.60
74364;DHT22;62797;49.740;10.154;2023-02-28T12:55:42;9.80;13.90
74364;DHT22;62797;49.740;10.154;2023-02-28T12:58:20;10.10;12.70
74364;DHT22;62797;49.740;10.154;2023-02-28T13:09:14;10.30;13.20
74364;DHT22;62797;49.740;10.154;2023-02-28T13:11:44;10.50;13.30
74364;DHT22;62797;49.740;10.154;2023-02-28T13:14:21;10.70;14.40
74364;DHT22;62797;49.740;10.154;2023-02-28T13:17:20;11.80;11.90
74364;DHT22;62797;49.740;10.154;2023-02-28T13:19:57;12.00;11.60
74364;DHT22;62797;49.740;10.154;2023-02-28T13:22:48;11.80;10.20
74364;DHT22;62797;49.740;10.154;2023-02-28T13:28:10;11.90;11.20
74364;DHT22;62797;49.740;10.154;2023-02-28T13:33:22;12.10;9.60
74364;DHT22;62797;49.740;10.154;2023-02-28T13:38:35;12.40;9.50
74364;DHT22;62797;49.740;10.154;2023-02-28T13:49:28;12.90;9.10
74364;DHT22;62797;49.740;10.154;2023-02-28T13:55:06;12.50;9.40
74364;DHT22;62797;49.740;10.154;2023-02-28T14:03:05;13.20;7.90
74364;DHT22;62797;49.740;10.154;2023-02-28T14:05:34;13.50;8.80
74364;DHT22;62797;49.740;10.154;2023-02-28T14:08:07;12.80;8.40
74364;DHT22;62797;49.740;10.154;2023-02-28T14:10:49;12.60;9.90
74364;DHT22;62797;49.740;10.154;2023-02-28T14:13:39;13.00;9.20
74364;DHT22;62797;49.740;10.154;2023-02-28T14:16:13;13.20;10.40
74364;DHT22;62797;49.740;10.154;2023-02-28T14:18:49;13.30;9.00
74364;DHT22;62797;49.740;10.154;2023-02-28T14:21:31;13.20;9.30
74364;DHT22;62797;49.740;10.154;2023-02-28T14:26:45;13.40;7.90
74364;DHT22;62797;49.740;10.154;2023-02-28T14:32:35;12.90;8.40
74364;DHT22;62797;49.740;10.154;2023-02-28T14:37:42;13.30;9.30
74364;DHT22;62797;49.740;10.154;2023-02-28T14:40:18;13.60;7.50
74364;DHT22;62797;49.740;10.154;2023-02-28T14:42:56;13.70;8.10
74364;DHT22;62797;49.740;10.154;2023-02-28T14:45:22;13.40;7.60
74364;DHT22;62797;49.740;10.154;2023-02-28T14:47:51;13.40;9.50
74364;DHT22;62797;49.740;10.154;2023-02-28T14:50:24;14.00;8.10
74364;DHT22;62797;49.740;10.154;2023-02-28T14:52:53;14.00;7.40
74364;DHT22;62797;49.740;10.154;2023-02-28T14:55:21;14.30;7.50
74364;DHT22;62797;49.740;10.154;2023-02-28T14:57:57;14.50;7.00
74364;DHT22;62797;49.740;10.154;2023-02-28T15:00:30;14.80;6.90
74364;DHT22;62797;49.740;10.154;2023-02-28T15:02:58;14.50;7.20
74364;DHT22;62797;49.740;10.154;2023-02-28T15:05:28;14.30;7.60
74364;DHT22;62797;49.740;10.154;2023-02-28T15:08:19;14.50;7.90
74364;DHT22;62797;49.740;10.154;2023-02-28T15:13:49;14.80;5.80
74364;DHT22;62797;49.740;10.154;2023-02-28T15:16:22;14.70;6.30
74364;DHT22;62797;49.740;10.154;2023-02-28T15:18:54;14.50;6.30
74364;DHT22;62797;49.740;10.154;2023-02-28T15:26:38;14.00;7.80
74364;DHT22;62797;49.740;10.154;2023-02-28T15:29:24;13.60;7.40
74364;DHT22;62797;49.740;10.154;2023-02-28T15:32:05;12.70;7.50
74364;DHT22;62797;49.740;10.154;2023-02-28T15:34:42;11.80;8.70
74364;DHT22;62797;49.740;10.154;2023-02-28T15:39:52;11.60;9.50
74364;DHT22;62797;49.740;10.154;2023-02-28T15:42:19;11.30;9.60
74364;DHT22;62797;49.740;10.154;2023-02-28T15:44:45;10.80;9.80
74364;DHT22;62797;49.740;10.154;2023-02-28T15:47:22;10.10;10.80
74364;DHT22;62797;49.740;10.154;2023-02-28T15:49:55;9.60;11.70
74364;DHT22;62797;49.740;10.154;2023-02-28T15:52:31;9.30;12.10
74364;DHT22;62797;49.740;10.154;2023-02-28T15:54:59;9.10;12.90
74364;DHT22;62797;49.740;10.154;2023-02-28T15:57:33;9.00;12.50
74364;DHT22;62797;49.740;10.154;2023-02-28T16:00:02;8.80;13.10
74364;DHT22;62797;49.740;10.154;2023-02-28T16:02:37;8.40;13.70
74364;DHT22;62797;49.740;10.154;2023-02-28T16:07:32;8.10;14.40
74364;DHT22;62797;49.740;10.154;2023-02-28T16:09:58;7.80;14.20
74364;DHT22;62797;49.740;10.154;2023-02-28T16:12:29;7.60;14.80
74364;DHT22;62797;49.740;10.154;2023-02-28T16:14:59;7.30;14.90
74364;DHT22;62797;49.740;10.154;2023-02-28T16:17:29;7.00;15.60
74364;DHT22;62797;49.740;10.154;2023-02-28T16:19:56;6.70;15.90
74364;DHT22;62797;49.740;10.154;2023-02-28T16:22:22;6.50;15.80
74364;DHT22;62797;49.740;10.154;2023-02-28T16:24:48;6.10;17.10
74364;DHT22;62797;49.740;10.154;2023-02-28T16:27:24;5.80;17.50
74364;DHT22;62797;49.740;10.154;2023-02-28T16:29:53;5.50;17.60
74364;DHT22;62797;49.740;10.154;2023-02-28T16:32:19;5.20;17.80
74364;DHT22;62797;49.740;10.154;2023-02-28T16:34:44;5.10;19.00
74364;DHT22;62797;49.740;10.154;2023-02-28T16:37:15;4.90;19.70
74364;DHT22;62797;49.740;10.154;2023-02-28T16:39:42;4.60;20.90
74364;DHT22;62797;49.740;10.154;2023-02-28T16:42:15;4.40;21.20
74364;DHT22;62797;49.740;10.154;2023-02-28T16:44:42;4.20;20.10
74364;DHT22;62797;49.740;10.154;2023-02-28T16:47:10;4.00;21.60
74364;DHT22;62797;49.740;10.154;2023-02-28T16:49:36;3.90;22.40
74364;DHT22;62797;49.740;10.154;2023-02-28T16:52:02;3.70;21.60
74364;DHT22;62797;49.740;10.154;2023-02-28T16:54:27;3.60;22.90
74364;DHT22;62797;49.740;10.154;2023-02-28T16:56:53;3.40;23.40
74364;DHT22;62797;49.740;10.154;2023-02-28T16:59:24;3.20;23.20
74364;DHT22;62797;49.740;10.154;2023-02-28T17:01:51;2.90;24.60
74364;DHT22;62797;49.740;10.154;2023-02-28T17:04:17;2.70;24.70
74364;DHT22;62797;49.740;10.154;2023-02-28T17:06:43;2.60;25.60
74364;DHT22;62797;49.740;10.154;2023-02-28T17:09:20;2.50;25.30
74364;DHT22;62797;49.740;10.154;2023-02-28T17:11:46;2.40;26.80
74364;DHT22;62797;49.740;10.154;2023-02-28T17:14:12;2.30;24.70
74364;DHT22;62797;49.740;10.154;2023-02-28T17:16:39;2.30;25.90
74364;DHT22;62797;49.740;10.154;2023-02-28T17:19:15;2.10;26.60
74364;DHT22;62797;49.740;10.154;2023-02-28T17:21:42;2.10;26.50
74364;DHT22;62797;49.740;10.154;2023-02-28T17:24:09;1.90;26.30
74364;DHT22;62797;49.740;10.154;2023-02-28T17:26:38;1.90;26.40
74364;DHT22;62797;49.740;10.154;2023-02-28T17:29:06;1.70;27.20
74364;DHT22;62797;49.740;10.154;2023-02-28T17:31:36;1.60;27.40
74364;DHT22;62797;49.740;10.154;2023-02-28T17:34:04;1.60;27.70
74364;DHT22;62797;49.740;10.154;2023-02-28T17:36:30;1.50;28.50
74364;DHT22;62797;49.740;10.154;2023-02-28T17:38:56;1.30;29.20
74364;DHT22;62797;49.740;10.154;2023-02-28T17:41:22;1.30;29.70
74364;DHT22;62797;49.740;10.154;2023-02-28T17:43:47;1.20;29.10
74364;DHT22;62797;49.740;10.154;2023-02-28T17:46:20;1.10;29.70
74364;DHT22;62797;49.740;10.154;2023-02-28T17:48:53;1.00;30.10